Ji'An, China
Current Conditions -  °F | °C
As of 4:00 AM on Saturday 25 Oct 2014 (Local Time) from ZGHA Reporting Station
Haze Haze  
Wind Chill: 57°   Ceiling: Unl
Heat Index: 57°   Visibility: 2.5mi
Dew Point: 54°   Wind: 4mph
Humidity: 88%   Direction: 50°NE
Pressure: 30"   Gusts: NA
Location:  27.12°N, 114.97°E
Report Text: ZGHA 242000Z 05002MPS 360V090 4000 BR NSC 14/12 Q1016 NOSIG
Loading
Personal Weather Stations






























Interactive Weather Map
Tropical Storm Tracking
New forecast layout! Learn more

10-Day Weather Forecast

Advertisements
Track Severe Weather on mobile